createdAt,value
2016-08-18T00:00:29.875Z,71.97
2016-08-18T00:01:29.907Z,72.26
2016-08-18T00:02:29.897Z,71.97
2016-08-18T00:03:29.916Z,71.78
2016-08-18T00:04:29.918Z,71.78
2016-08-18T00:05:29.931Z,71.78
2016-08-18T00:06:29.928Z,71.59
2016-08-18T00:07:29.941Z,71.69
2016-08-18T00:08:29.938Z,71.75
2016-08-18T00:09:29.959Z,71.88
2016-08-18T00:10:29.968Z,71.78
2016-08-18T00:11:29.951Z,72.17
2016-08-18T00:12:29.978Z,71.69
2016-08-18T00:13:29.963Z,71.97
2016-08-18T00:14:29.993Z,71.69
2016-08-18T00:15:29.983Z,71.88
2016-08-18T00:16:30.009Z,71.88
2016-08-18T00:17:30.018Z,71.49
2016-08-18T00:18:30.002Z,71.88
2016-08-18T00:19:30.011Z,71.69
2016-08-18T00:20:30.013Z,71.75
2016-08-18T00:21:30.035Z,71.75
2016-08-18T00:22:30.033Z,71.65
2016-08-18T00:23:30.041Z,71.75
2016-08-18T00:24:30.066Z,71.65
2016-08-18T00:25:30.061Z,72.07
2016-08-18T00:26:30.071Z,71.75
2016-08-18T00:27:30.800Z,71.84
2016-08-18T00:28:30.094Z,71.65
2016-08-18T00:29:30.078Z,71.75
2016-08-18T00:30:30.107Z,71.65
2016-08-18T00:31:30.097Z,72.03
2016-08-18T00:32:30.100Z,72.03
2016-08-18T00:33:30.108Z,72.13
2016-08-18T00:34:30.114Z,72.03
2016-08-18T00:35:30.130Z,72.13
2016-08-18T00:36:30.130Z,71.94
2016-08-18T00:37:30.140Z,72.23
2016-08-18T00:38:30.136Z,71.84
2016-08-18T00:39:30.166Z,72.03
2016-08-18T00:40:30.173Z,72.32
2016-08-18T00:41:30.175Z,72.42
2016-08-18T00:42:30.190Z,72.71
2016-08-18T00:43:30.902Z,72.61
2016-08-18T00:44:30.387Z,72.71
2016-08-18T00:45:30.207Z,72.32
2016-08-18T00:46:30.203Z,72.13
2016-08-18T00:47:30.201Z,72.61
2016-08-18T00:48:30.208Z,72.52
2016-08-18T00:49:30.222Z,72.71
2016-08-18T00:50:30.243Z,71.94
2016-08-18T00:51:30.234Z,72.23
2016-08-18T00:52:30.258Z,72.61
2016-08-18T00:53:30.261Z,71.84
2016-08-18T00:54:30.267Z,72.32
2016-08-18T00:55:30.278Z,72.13
2016-08-18T00:56:30.286Z,71.94
2016-08-18T00:57:30.269Z,72.03
2016-08-18T00:58:30.290Z,72.23
2016-08-18T00:59:30.305Z,71.84
2016-08-18T01:00:30.318Z,72.42
2016-08-18T01:01:30.316Z,72.23
2016-08-18T01:02:30.323Z,72.61
2016-08-18T01:03:30.314Z,72.61
2016-08-18T01:04:30.329Z,72.71
2016-08-18T01:05:30.332Z,72.42
2016-08-18T01:06:30.328Z,72.61
2016-08-18T01:07:30.343Z,72.8
2016-08-18T01:08:30.357Z,73.09
2016-08-18T01:09:30.362Z,72.8
2016-08-18T01:10:30.371Z,73.09
2016-08-18T01:11:30.392Z,73.09
2016-08-18T01:12:30.372Z,72.96
2016-08-18T01:13:30.377Z,73.09
2016-08-18T01:14:30.394Z,72.71
2016-08-18T01:15:30.407Z,73
2016-08-18T01:16:30.393Z,73.57
2016-08-18T01:17:30.406Z,73.06
2016-08-18T01:18:30.430Z,73.47
2016-08-18T01:19:30.431Z,73.38
2016-08-18T01:20:30.443Z,73.28
2016-08-18T01:21:30.438Z,73.09
2016-08-18T01:22:30.454Z,73.28
2016-08-18T01:23:30.449Z,73.35
2016-08-18T01:24:30.462Z,73.44
2016-08-18T01:25:30.462Z,73.44
2016-08-18T01:26:31.183Z,73.06
2016-08-18T01:27:30.480Z,73.47
2016-08-18T01:28:30.487Z,73.09
2016-08-18T01:29:30.504Z,73.06
2016-08-18T01:30:30.506Z,73.35
2016-08-18T01:31:30.508Z,73.35
2016-08-18T01:32:30.516Z,73.15
2016-08-18T01:33:30.513Z,73.92
2016-08-18T01:34:30.538Z,73.83
2016-08-18T01:35:30.524Z,73.92
2016-08-18T01:36:30.532Z,73.92
2016-08-18T01:37:30.553Z,73.92
2016-08-18T01:38:30.567Z,73.92
2016-08-18T01:39:30.559Z,73.63
2016-08-18T01:40:30.559Z,73.73
2016-08-18T01:41:30.587Z,73.63
2016-08-18T01:42:30.571Z,73.73
2016-08-18T01:43:30.583Z,73.92
2016-08-18T01:44:30.602Z,74.02
2016-08-18T01:45:30.602Z,73.92
2016-08-18T01:46:30.617Z,74.3
2016-08-18T01:47:30.612Z,74.21
2016-08-18T01:48:30.619Z,74.11
2016-08-18T01:49:30.624Z,73.44
2016-08-18T01:50:30.638Z,73.73
2016-08-18T01:51:30.630Z,73.63
2016-08-18T01:52:30.657Z,73.92
2016-08-18T01:53:30.658Z,73.92
2016-08-18T01:54:30.667Z,73.83
2016-08-18T01:55:30.669Z,73.92
2016-08-18T01:56:30.683Z,73.63
2016-08-18T01:57:30.682Z,73.83
2016-08-18T01:58:30.685Z,73.83
2016-08-18T01:59:30.699Z,73.83
2016-08-18T02:00:30.700Z,73.83
2016-08-18T02:01:30.708Z,73.35
2016-08-18T02:02:30.718Z,73.83
2016-08-18T02:03:30.709Z,73.73
2016-08-18T02:04:30.721Z,73.83
2016-08-18T02:05:30.733Z,73.44
2016-08-18T02:06:30.725Z,73.83
2016-08-18T02:07:30.766Z,73.83
2016-08-18T02:08:30.755Z,73.83
2016-08-18T02:09:30.761Z,73.83
2016-08-18T02:10:30.753Z,73.83
2016-08-18T02:11:30.776Z,73.83
2016-08-18T02:12:30.777Z,73.73
2016-08-18T02:13:30.788Z,73.15
2016-08-18T02:14:30.797Z,73.15
2016-08-18T02:15:30.808Z,74.02
2016-08-18T02:16:30.791Z,74.02
2016-08-18T02:17:30.827Z,73.73
2016-08-18T02:18:30.828Z,73.83
2016-08-18T02:19:30.836Z,73.73
2016-08-18T02:20:30.840Z,73.73
2016-08-18T02:21:30.841Z,74.02
2016-08-18T02:22:30.838Z,74.02
2016-08-18T02:23:30.855Z,74.21
2016-08-18T02:24:30.872Z,74.11
2016-08-18T02:25:30.867Z,73.83
2016-08-18T02:26:30.881Z,74.02
2016-08-18T02:27:30.864Z,74.02
2016-08-18T02:28:30.882Z,74.11
2016-08-18T02:29:30.883Z,73.92
2016-08-18T02:30:30.891Z,74.11
2016-08-18T02:31:30.909Z,73.92
2016-08-18T02:32:30.912Z,74.11
2016-08-18T02:33:30.903Z,73.92
2016-08-18T02:34:30.918Z,73.83
2016-08-18T02:35:30.939Z,74.11
2016-08-18T02:36:30.936Z,73.83
2016-08-18T02:37:30.943Z,73.92
2016-08-18T02:38:30.957Z,73.83
2016-08-18T02:39:30.942Z,73.73
2016-08-18T02:40:30.971Z,74.4
2016-08-18T02:41:30.955Z,73.92
2016-08-18T02:42:30.999Z,73.92
2016-08-18T02:43:30.977Z,73.92
2016-08-18T02:44:30.981Z,74.02
2016-08-18T02:45:30.983Z,74.11
2016-08-18T02:46:30.987Z,74.4
2016-08-18T02:47:31.015Z,74.11
2016-08-18T02:48:31.024Z,74.6
2016-08-18T02:49:31.032Z,74.4
2016-08-18T02:50:31.028Z,74.3
2016-08-18T02:51:31.040Z,74.69
2016-08-18T02:52:31.032Z,74.69
2016-08-18T02:53:31.055Z,74.5
2016-08-18T02:54:31.048Z,74.21
2016-08-18T02:55:31.043Z,74.4
2016-08-18T02:56:31.060Z,74.5
2016-08-18T02:57:31.073Z,74.4
2016-08-18T02:58:31.072Z,74.46
2016-08-18T02:59:31.085Z,74.21
2016-08-18T03:00:31.087Z,74.5
2016-08-18T03:01:31.103Z,74.5
2016-08-18T03:02:31.090Z,74.5
2016-08-18T03:03:31.103Z,74.69
2016-08-18T03:04:31.120Z,74.5
2016-08-18T03:05:31.132Z,74.3
2016-08-18T03:06:31.122Z,74.4
2016-08-18T03:07:31.133Z,74.6
2016-08-18T03:08:31.134Z,74.4
2016-08-18T03:09:31.150Z,74.6
2016-08-18T03:10:31.163Z,74.5
2016-08-18T03:11:31.168Z,74.4
2016-08-18T03:12:31.162Z,74.21
2016-08-18T03:13:31.174Z,74.6
2016-08-18T03:14:31.177Z,74.6
2016-08-18T03:15:31.192Z,74.75
2016-08-18T03:16:31.202Z,74.6
2016-08-18T03:17:31.189Z,74.4
2016-08-18T03:18:31.211Z,74.88
2016-08-18T03:19:31.219Z,74.79
2016-08-18T03:20:31.207Z,74.98
2016-08-18T03:21:31.213Z,74.85
2016-08-18T03:22:31.217Z,74.65
2016-08-18T03:23:31.240Z,74.85
2016-08-18T03:24:31.241Z,74.94
2016-08-18T03:25:31.248Z,74.94
2016-08-18T03:26:31.254Z,75.04
2016-08-18T03:27:31.967Z,74.75
2016-08-18T03:28:31.265Z,74.75
2016-08-18T03:29:31.273Z,74.94
2016-08-18T03:30:31.284Z,74.75
2016-08-18T03:31:31.282Z,74.75
2016-08-18T03:32:31.303Z,74.75
2016-08-18T03:33:31.301Z,74.75
2016-08-18T03:34:31.313Z,74.94
2016-08-18T03:35:31.312Z,74.69
2016-08-18T03:36:31.312Z,74.65
2016-08-18T03:37:31.344Z,75.13
2016-08-18T03:38:31.338Z,75.23
2016-08-18T03:39:31.351Z,75.46
2016-08-18T03:40:31.354Z,75.52
2016-08-18T03:41:31.349Z,75.62
2016-08-18T03:42:31.362Z,75.32
2016-08-18T03:43:31.374Z,75.42
2016-08-18T03:44:31.367Z,75.23
2016-08-18T03:45:31.388Z,75.27
2016-08-18T03:46:31.389Z,75.27
2016-08-18T03:47:31.382Z,75.23
2016-08-18T03:48:31.388Z,75.13
2016-08-18T03:49:31.398Z,75.62
2016-08-18T03:50:31.418Z,75.81
2016-08-18T03:51:31.409Z,75.62
2016-08-18T03:52:31.424Z,75.71
2016-08-18T03:53:31.425Z,75.71
2016-08-18T03:54:31.427Z,75.71
2016-08-18T03:55:31.445Z,75.42
2016-08-18T03:56:31.440Z,75.42
2016-08-18T03:57:31.455Z,75.23
2016-08-18T03:58:31.473Z,75.13
2016-08-18T03:59:31.478Z,75.42
2016-08-18T04:00:31.477Z,75.62
2016-08-18T04:01:31.489Z,75.23
2016-08-18T04:02:31.481Z,75.13
2016-08-18T04:03:31.495Z,75.62
2016-08-18T04:04:31.504Z,75.23
2016-08-18T04:05:31.508Z,75.42
2016-08-18T04:06:31.502Z,74.94
2016-08-18T04:07:31.509Z,75.23
2016-08-18T04:08:31.531Z,75.62
2016-08-18T04:09:31.531Z,76
2016-08-18T04:10:31.550Z,75.71
2016-08-18T04:11:31.549Z,75.56
2016-08-18T04:12:31.550Z,75.81
2016-08-18T04:13:31.551Z,75.75
2016-08-18T04:14:31.554Z,76.09
2016-08-18T04:15:32.260Z,76.52
2016-08-18T04:16:31.571Z,76.48
2016-08-18T04:17:31.592Z,76.19
2016-08-18T04:18:31.584Z,76.29
2016-08-18T04:19:31.601Z,76.42
2016-08-18T04:20:31.601Z,76.61
2016-08-18T04:21:31.624Z,76.48
2016-08-18T04:22:31.627Z,76.9
2016-08-18T04:23:31.635Z,77.06
2016-08-18T04:24:31.624Z,76.86
2016-08-18T04:25:31.633Z,76.77
2016-08-18T04:26:31.644Z,76.86
2016-08-18T04:27:31.651Z,76.96
2016-08-18T04:28:31.643Z,76.96
2016-08-18T04:29:31.659Z,76.96
2016-08-18T04:30:31.659Z,77.29
2016-08-18T04:31:31.675Z,77.63
2016-08-18T04:32:31.668Z,77.96
2016-08-18T04:33:31.681Z,77.96
2016-08-18T04:34:31.693Z,77.96
2016-08-18T04:35:31.711Z,78.02
2016-08-18T04:36:31.720Z,78.25
2016-08-18T04:37:31.719Z,78.06
2016-08-18T04:38:31.728Z,78.15
2016-08-18T04:39:31.724Z,78.3
2016-08-18T04:40:31.724Z,78.25
2016-08-18T04:41:31.727Z,78.15
2016-08-18T04:42:31.757Z,78.25
2016-08-18T04:43:31.762Z,78.25
2016-08-18T04:44:31.755Z,78.44
2016-08-18T04:45:31.769Z,78.53
2016-08-18T04:46:31.777Z,78.63
2016-08-18T04:47:31.784Z,78.83
2016-08-18T04:48:31.796Z,79.02
2016-08-18T04:49:31.781Z,79.3
2016-08-18T04:50:31.790Z,78.83
2016-08-18T04:51:31.795Z,78.73
2016-08-18T04:52:31.801Z,78.73
2016-08-18T04:53:31.826Z,79.3
2016-08-18T04:54:31.818Z,78.73
2016-08-18T04:55:31.842Z,79.17
2016-08-18T04:56:31.846Z,79.21
2016-08-18T04:57:31.838Z,78.69
2016-08-18T04:58:31.853Z,78.92
2016-08-18T04:59:31.851Z,78.78
2016-08-18T05:00:31.870Z,78.92
2016-08-18T05:01:31.870Z,78.78
2016-08-18T05:02:31.867Z,78.88
2016-08-18T05:03:31.880Z,78.92
2016-08-18T05:04:31.885Z,78.92
2016-08-18T05:05:31.901Z,78.83
2016-08-18T05:06:31.907Z,78.88
2016-08-18T05:07:31.916Z,79.02
2016-08-18T05:08:31.935Z,78.53
2016-08-18T05:09:31.917Z,79.21
2016-08-18T05:10:31.932Z,78.44
2016-08-18T05:11:31.946Z,78.83
2016-08-18T05:12:31.951Z,78.83
2016-08-18T05:13:31.944Z,78.83
2016-08-18T05:14:31.962Z,78.92
2016-08-18T05:15:31.962Z,79.02
2016-08-18T05:16:31.965Z,79.5
2016-08-18T05:17:31.978Z,79.3
2016-08-18T05:18:31.991Z,79.3
2016-08-18T05:19:31.982Z,79.6
2016-08-18T05:20:31.981Z,79.5
2016-08-18T05:21:31.994Z,80.07
2016-08-18T05:22:32.019Z,79.98
2016-08-18T05:23:32.001Z,79.98
2016-08-18T05:24:32.021Z,79.79
2016-08-18T05:25:32.034Z,79.88
2016-08-18T05:26:32.034Z,80.27
2016-08-18T05:27:32.046Z,80.46
2016-08-18T05:28:32.058Z,80.65
2016-08-18T05:29:32.064Z,80.84
2016-08-18T05:30:32.062Z,80.65
2016-08-18T05:31:32.073Z,81.04
2016-08-18T05:32:32.072Z,81.32
2016-08-18T05:33:32.071Z,80.94
2016-08-18T05:34:32.074Z,81.32
2016-08-18T05:35:32.081Z,81.61
2016-08-18T05:36:32.101Z,81.23
2016-08-18T05:37:32.103Z,81.52
2016-08-18T05:38:32.124Z,81.71
2016-08-18T05:39:32.131Z,81.81
2016-08-18T05:40:32.120Z,81.61
2016-08-18T05:41:32.125Z,82.09
2016-08-18T05:42:32.140Z,82.09
2016-08-18T05:43:32.157Z,81.81
2016-08-18T05:44:32.159Z,81.81
2016-08-18T05:45:32.256Z,82.09
2016-08-18T05:46:32.174Z,81.99
2016-08-18T05:47:32.184Z,82.29
2016-08-18T05:48:32.194Z,81.99
2016-08-18T05:49:32.181Z,81.99
2016-08-18T05:50:32.196Z,82.29
2016-08-18T05:51:32.190Z,82.09
2016-08-18T05:52:32.237Z,82.19
2016-08-18T05:53:32.203Z,82.67
2016-08-18T05:54:32.228Z,82.09
2016-08-18T05:55:32.223Z,81.99
2016-08-18T05:56:32.223Z,82.67
2016-08-18T05:57:32.241Z,82.38
2016-08-18T05:58:32.258Z,81.99
2016-08-18T05:59:32.258Z,82.42
2016-08-18T06:00:32.255Z,82.57
2016-08-18T06:01:32.254Z,82.57
2016-08-18T06:02:32.283Z,82.52
2016-08-18T06:03:32.292Z,82.67
2016-08-18T06:04:32.292Z,82.86
2016-08-18T06:05:32.285Z,82.76
2016-08-18T06:06:32.289Z,82.67
2016-08-18T06:07:32.301Z,82.61
2016-08-18T06:08:32.315Z,82.76
2016-08-18T06:09:32.334Z,82.04
2016-08-18T06:10:32.326Z,82.32
2016-08-18T06:11:32.333Z,82.23
2016-08-18T06:12:32.343Z,82.42
2016-08-18T06:13:32.360Z,82.9
2016-08-18T06:14:32.354Z,82.61
2016-08-18T06:15:32.357Z,82.61
2016-08-18T06:16:32.375Z,83
2016-08-18T06:17:32.370Z,83.19
2016-08-18T06:18:32.412Z,83
2016-08-18T06:19:32.413Z,83.09
2016-08-18T06:20:32.390Z,83
2016-08-18T06:21:32.406Z,83.29
2016-08-18T06:22:32.407Z,83.09
2016-08-18T06:23:32.469Z,83.19
2016-08-18T06:24:32.435Z,83.19
2016-08-18T06:25:32.821Z,83.29
2016-08-18T06:26:32.435Z,82.9
2016-08-18T06:27:32.453Z,83.09
2016-08-18T06:28:32.463Z,82.94
2016-08-18T06:29:32.458Z,83
2016-08-18T06:30:32.457Z,83.19
2016-08-18T06:31:32.475Z,83.04
2016-08-18T06:32:32.486Z,82.94
2016-08-18T06:33:32.479Z,83.14
2016-08-18T06:34:32.491Z,82.85
2016-08-18T06:35:32.506Z,83.04
2016-08-18T06:36:32.520Z,82.94
2016-08-18T06:37:33.232Z,82.75
2016-08-18T06:38:32.529Z,83.62
2016-08-18T06:39:32.528Z,82.94
2016-08-18T06:40:32.558Z,83.14
2016-08-18T06:41:32.553Z,83.23
2016-08-18T06:42:32.563Z,83.14
2016-08-18T06:43:32.557Z,83.23
2016-08-18T06:44:32.579Z,82.94
2016-08-18T06:45:32.621Z,82.75
2016-08-18T06:46:32.587Z,82.94
2016-08-18T06:47:32.604Z,82.94
2016-08-18T06:48:32.607Z,83.33
2016-08-18T06:49:32.611Z,83.33
2016-08-18T06:50:32.619Z,83.04
2016-08-18T06:51:32.623Z,83.23
2016-08-18T06:52:32.631Z,83.23
2016-08-18T06:53:32.631Z,83.04
2016-08-18T06:54:32.653Z,83.52
2016-08-18T06:55:32.644Z,83.23
2016-08-18T06:56:32.667Z,83.33
2016-08-18T06:57:32.658Z,83.14
2016-08-18T06:58:32.662Z,83.23
2016-08-18T06:59:32.670Z,82.79
2016-08-18T07:00:32.678Z,82.79
2016-08-18T07:01:32.691Z,82.79
2016-08-18T07:02:32.714Z,82.85
2016-08-18T07:03:32.700Z,82.7
2016-08-18T07:04:32.705Z,82.94
2016-08-18T07:05:32.730Z,82.7
2016-08-18T07:06:32.735Z,82.7
2016-08-18T07:07:32.752Z,82.79
2016-08-18T07:08:32.756Z,82.21
2016-08-18T07:09:32.758Z,82.31
2016-08-18T07:10:32.789Z,82.5
2016-08-18T07:11:32.773Z,82.41
2016-08-18T07:12:32.785Z,81.93
2016-08-18T07:13:32.778Z,81.73
2016-08-18T07:14:32.806Z,81.63
2016-08-18T07:15:32.805Z,81.73
2016-08-18T07:16:32.810Z,81.83
2016-08-18T07:17:32.820Z,81.25
2016-08-18T07:18:32.812Z,81.35
2016-08-18T07:19:32.847Z,81.45
2016-08-18T07:20:32.849Z,80.77
2016-08-18T07:21:32.863Z,81.25
2016-08-18T07:22:32.869Z,81.25
2016-08-18T07:23:32.865Z,81.45
2016-08-18T07:24:32.882Z,81.45
2016-08-18T07:25:32.871Z,81.63
2016-08-18T07:26:32.887Z,81.54
2016-08-18T07:27:32.908Z,81.35
2016-08-18T07:28:32.892Z,81.45
2016-08-18T07:29:32.915Z,81.45
2016-08-18T07:30:32.927Z,81.2
2016-08-18T07:31:32.939Z,80.62
2016-08-18T07:32:32.935Z,80.71
2016-08-18T07:33:32.951Z,80.71
2016-08-18T07:34:32.953Z,80.62
2016-08-18T07:35:32.950Z,80.91
2016-08-18T07:36:32.971Z,80.52
2016-08-18T07:37:32.974Z,80.52
2016-08-18T07:38:33.028Z,80.43
2016-08-18T07:39:32.982Z,80.52
2016-08-18T07:40:37.241Z,80.33
2016-08-18T07:41:32.996Z,80.33
2016-08-18T07:42:33.009Z,80.23
2016-08-18T07:43:33.006Z,80.14
2016-08-18T07:44:33.021Z,79.85
2016-08-18T07:45:33.017Z,80.23
2016-08-18T07:46:33.041Z,80.14
2016-08-18T07:47:33.034Z,79.75
2016-08-18T07:48:33.056Z,79.36
2016-08-18T07:49:33.065Z,79.46
2016-08-18T07:50:33.062Z,79.75
2016-08-18T07:51:33.087Z,80.14
2016-08-18T07:52:33.805Z,79.94
2016-08-18T07:53:33.088Z,79.46
2016-08-18T07:54:33.089Z,79.66
2016-08-18T07:55:33.096Z,79.46
2016-08-18T07:56:33.105Z,79.36
2016-08-18T07:57:33.161Z,79.41
2016-08-18T07:58:33.127Z,79.94
2016-08-18T07:59:33.138Z,79.85
2016-08-18T08:00:33.134Z,79.69
2016-08-18T08:01:33.173Z,79.98
2016-08-18T08:02:33.167Z,79.79
2016-08-18T08:03:33.183Z,79.79
2016-08-18T08:04:33.178Z,79.5
2016-08-18T08:05:33.177Z,79.79
2016-08-18T08:06:33.199Z,79.79
2016-08-18T08:07:33.194Z,79.79
2016-08-18T08:08:33.272Z,79.6
2016-08-18T08:09:33.212Z,79.41
2016-08-18T08:10:33.225Z,79.89
2016-08-18T08:11:33.230Z,79.5
2016-08-18T08:12:33.236Z,79.31
2016-08-18T08:13:33.257Z,79.5
2016-08-18T08:14:33.250Z,79.5
2016-08-18T08:15:33.259Z,79.02
2016-08-18T08:16:33.274Z,79.21
2016-08-18T08:17:33.276Z,79.02
2016-08-18T08:18:33.279Z,78.54
2016-08-18T08:19:33.306Z,79.11
2016-08-18T08:20:33.299Z,78.92
2016-08-18T08:21:33.342Z,79.21
2016-08-18T08:22:33.324Z,79.11
2016-08-18T08:23:34.064Z,78.92
2016-08-18T08:24:33.324Z,79.02
2016-08-18T08:25:33.336Z,78.73
2016-08-18T08:26:33.363Z,78.44
2016-08-18T08:27:33.372Z,78.54
2016-08-18T08:28:33.356Z,78.73
2016-08-18T08:29:33.386Z,78.29
2016-08-18T08:30:33.829Z,78.73
2016-08-18T08:31:33.390Z,78.63
2016-08-18T08:32:33.417Z,78.44
2016-08-18T08:33:33.403Z,78.29
2016-08-18T08:34:33.451Z,78.38
2016-08-18T08:35:33.753Z,78.29
2016-08-18T08:36:34.605Z,78.29
2016-08-18T08:37:33.438Z,78
2016-08-18T08:38:33.658Z,78.29
2016-08-18T08:39:33.454Z,77.9
2016-08-18T08:40:36.004Z,78.09
2016-08-18T08:41:33.595Z,78.38
2016-08-18T08:42:33.483Z,78.29
2016-08-18T08:43:34.246Z,78
2016-08-18T08:44:33.982Z,78
2016-08-18T08:45:33.992Z,78.19
2016-08-18T08:46:33.797Z,78
2016-08-18T08:47:33.534Z,77.81
2016-08-18T08:48:33.526Z,77.84
2016-08-18T08:49:33.544Z,78.29
2016-08-18T08:50:33.535Z,78.19
2016-08-18T08:51:33.546Z,77.81
2016-08-18T08:52:33.566Z,77.81
2016-08-18T08:53:33.572Z,78.09
2016-08-18T08:54:33.573Z,77.94
2016-08-18T08:55:33.569Z,77.84
2016-08-18T08:56:33.599Z,76.98
2016-08-18T08:57:33.603Z,77.26
2016-08-18T08:58:33.608Z,77.33
2016-08-18T08:59:33.609Z,77.26
2016-08-18T09:00:33.628Z,76.98
2016-08-18T09:01:33.630Z,76.59
2016-08-18T09:02:33.637Z,77.26
2016-08-18T09:03:33.799Z,77.07
2016-08-18T09:04:33.648Z,76.88
2016-08-18T09:05:34.574Z,76.59
2016-08-18T09:06:33.689Z,77.36
2016-08-18T09:07:33.688Z,77.26
2016-08-18T09:08:33.686Z,77.26
2016-08-18T09:09:33.687Z,77.26
2016-08-18T09:10:33.702Z,76.68
2016-08-18T09:11:33.718Z,77.26
2016-08-18T09:12:33.719Z,77.36
2016-08-18T09:13:33.725Z,77.17
2016-08-18T09:14:33.728Z,76.88
2016-08-18T09:15:33.744Z,76.4
2016-08-18T09:16:33.736Z,76.5
2016-08-18T09:17:33.758Z,76.5
2016-08-18T09:18:33.766Z,76.3
2016-08-18T09:19:33.763Z,76.5
2016-08-18T09:20:33.812Z,76.88
2016-08-18T09:21:33.797Z,77.01
2016-08-18T09:22:34.487Z,77.3
2016-08-18T09:23:33.816Z,76.59
2016-08-18T09:24:33.816Z,77.01
2016-08-18T09:25:33.818Z,77.4
2016-08-18T09:26:33.824Z,77.21
2016-08-18T09:27:33.830Z,76.92
2016-08-18T09:28:33.844Z,77.01
2016-08-18T09:29:33.850Z,77.3
2016-08-18T09:30:33.883Z,77.3
2016-08-18T09:31:33.883Z,77.3
2016-08-18T09:32:33.926Z,77.21
2016-08-18T09:33:33.899Z,77.5
2016-08-18T09:34:33.898Z,77.01
2016-08-18T09:35:34.292Z,77.4
2016-08-18T09:36:33.909Z,77.3
2016-08-18T09:37:33.918Z,77.36
2016-08-18T09:38:33.940Z,77.4
2016-08-18T09:39:33.937Z,76.82
2016-08-18T09:40:33.948Z,76.82
2016-08-18T09:41:33.945Z,77.21
2016-08-18T09:42:33.967Z,76.98
2016-08-18T09:43:33.988Z,76.3
2016-08-18T09:44:33.985Z,76.43
2016-08-18T09:45:33.980Z,77.11
2016-08-18T09:46:33.996Z,77.21
2016-08-18T09:47:34.011Z,77.3
2016-08-18T09:48:34.021Z,77.5
2016-08-18T09:49:34.030Z,77.3
2016-08-18T09:50:34.039Z,77.11
2016-08-18T09:51:34.052Z,77.4
2016-08-18T09:52:34.032Z,77.69
2016-08-18T09:53:34.062Z,77.4
2016-08-18T09:54:34.060Z,77.3
2016-08-18T09:55:34.059Z,76.82
2016-08-18T09:56:34.080Z,76.53
2016-08-18T09:57:34.101Z,76.43
2016-08-18T09:58:34.088Z,76.82
2016-08-18T09:59:34.108Z,76.43
2016-08-18T10:00:34.131Z,75.85
2016-08-18T10:01:34.247Z,76.15
2016-08-18T10:02:34.142Z,75.85
2016-08-18T10:03:34.126Z,76.24
2016-08-18T10:04:34.209Z,75.57
2016-08-18T10:05:34.155Z,75.76
2016-08-18T10:06:34.151Z,75.85
2016-08-18T10:07:34.159Z,75.6
2016-08-18T10:08:34.169Z,75.57
2016-08-18T10:09:34.176Z,75.57
2016-08-18T10:10:34.189Z,75.6
2016-08-18T10:11:34.216Z,75.79
2016-08-18T10:12:34.223Z,75.12
2016-08-18T10:13:34.228Z,75.41
2016-08-18T10:14:34.242Z,74.73
2016-08-18T10:15:34.415Z,75.22
2016-08-18T10:16:34.256Z,75.12
2016-08-18T10:17:34.243Z,75.31
2016-08-18T10:18:34.270Z,75.41
2016-08-18T10:19:34.269Z,75.31
2016-08-18T10:20:34.284Z,75.22
2016-08-18T10:21:34.286Z,75.12
2016-08-18T10:22:34.284Z,75.02
2016-08-18T10:23:34.314Z,75.12
2016-08-18T10:24:34.307Z,75.51
2016-08-18T10:25:35.049Z,75.41
2016-08-18T10:26:34.334Z,75.76
2016-08-18T10:27:34.347Z,75.79
2016-08-18T10:28:34.360Z,75.76
2016-08-18T10:29:34.348Z,75.85
2016-08-18T10:30:34.358Z,75.02
2016-08-18T10:31:34.378Z,75.22
2016-08-18T10:32:35.091Z,75.31
2016-08-18T10:33:34.400Z,74.73
2016-08-18T10:34:34.390Z,74.93
2016-08-18T10:35:34.397Z,74.73
2016-08-18T10:36:34.423Z,74.54
2016-08-18T10:37:34.420Z,74.44
2016-08-18T10:38:34.440Z,74.16
2016-08-18T10:39:34.444Z,74.19
2016-08-18T10:40:34.442Z,74.38
2016-08-18T10:41:34.446Z,74.29
2016-08-18T10:42:34.454Z,74.58
2016-08-18T10:43:34.484Z,74.38
2016-08-18T10:44:34.486Z,74.29
2016-08-18T10:45:34.490Z,74.19
2016-08-18T10:46:34.505Z,74.19
2016-08-18T10:47:34.503Z,74
2016-08-18T10:48:34.506Z,74.19
2016-08-18T10:49:34.525Z,73.9
2016-08-18T10:50:34.547Z,74.29
2016-08-18T10:51:34.550Z,74.44
2016-08-18T10:52:34.557Z,74.25
2016-08-18T10:53:34.556Z,74.64
2016-08-18T10:54:34.578Z,74.38
2016-08-18T10:55:34.578Z,74
2016-08-18T10:56:34.589Z,74.19
2016-08-18T10:57:34.584Z,73.52
2016-08-18T10:58:34.597Z,73.61
2016-08-18T10:59:34.615Z,73.32
2016-08-18T11:00:34.621Z,73.52
2016-08-18T11:01:34.642Z,73.71
2016-08-18T11:02:34.636Z,73.42
2016-08-18T11:03:34.650Z,73.52
2016-08-18T11:04:34.646Z,73.42
2016-08-18T11:05:34.667Z,73.71
2016-08-18T11:06:34.670Z,73.8
2016-08-18T11:07:34.670Z,74.19
2016-08-18T11:08:34.696Z,74.19
2016-08-18T11:09:34.687Z,74.19
2016-08-18T11:10:34.717Z,73.9
2016-08-18T11:11:34.718Z,74
2016-08-18T11:12:34.727Z,74
2016-08-18T11:13:34.746Z,74
2016-08-18T11:14:34.754Z,74.1
2016-08-18T11:15:34.740Z,74.19
2016-08-18T11:16:34.746Z,74
2016-08-18T11:17:34.774Z,74
2016-08-18T11:18:34.771Z,74
2016-08-18T11:19:35.475Z,74.1
2016-08-18T11:20:34.786Z,74.48
2016-08-18T11:21:34.817Z,74.68
2016-08-18T11:22:34.825Z,74.29
2016-08-18T11:23:34.816Z,74.38
2016-08-18T11:24:34.837Z,74.48
2016-08-18T11:25:34.833Z,74.38
2016-08-18T11:26:34.838Z,74.19
2016-08-18T11:27:34.845Z,74.48
2016-08-18T11:28:34.870Z,74.29
2016-08-18T11:29:34.888Z,74.19
2016-08-18T11:30:34.874Z,74.29
2016-08-18T11:31:34.889Z,74.48
2016-08-18T11:32:34.904Z,74.68
2016-08-18T11:33:34.925Z,74.19
2016-08-18T11:34:34.931Z,74.58
2016-08-18T11:35:35.091Z,74.58
2016-08-18T11:36:34.947Z,74.48
2016-08-18T11:37:34.958Z,75.16
2016-08-18T11:38:34.969Z,74.87
2016-08-18T11:39:34.968Z,74.68
2016-08-18T11:40:34.984Z,74.77
2016-08-18T11:41:34.981Z,74.68
2016-08-18T11:42:34.994Z,75.64
2016-08-18T11:43:34.996Z,76.51
2016-08-18T11:44:35.735Z,76.9
2016-08-18T11:45:35.012Z,76.51
2016-08-18T11:46:35.023Z,76.42
2016-08-18T11:47:35.027Z,76.09
2016-08-18T11:48:35.098Z,76.9
2016-08-18T11:49:35.056Z,75.89
2016-08-18T11:50:35.756Z,76.18
2016-08-18T11:51:35.081Z,75.99
2016-08-18T11:52:35.081Z,76.18
2016-08-18T11:53:35.086Z,75.99
2016-08-18T11:54:35.086Z,75.79
2016-08-18T11:55:35.111Z,75.7
2016-08-18T11:56:35.118Z,75.6
2016-08-18T12:12:01.648Z,76.09
2016-08-18T12:13:01.676Z,77.05
2016-08-18T12:14:01.767Z,76.37
2016-08-18T12:15:02.291Z,76.67
2016-08-18T12:16:02.543Z,76.76
2016-08-18T12:17:02.314Z,76.47
2016-08-18T12:18:02.570Z,76.67
2016-08-18T12:19:02.334Z,76.47
2016-08-18T12:20:02.444Z,76.47
2016-08-18T12:21:02.481Z,76.76
2016-08-18T12:22:02.343Z,76.95
2016-08-18T12:23:02.367Z,77.15
2016-08-18T12:24:02.353Z,77.25
2016-08-18T12:25:02.382Z,77.53
2016-08-18T12:26:02.476Z,77.92
2016-08-18T12:27:02.385Z,78.31
2016-08-18T12:28:02.557Z,78.02
2016-08-18T12:29:02.407Z,78.02
2016-08-18T12:30:02.412Z,78.11
2016-08-18T12:31:02.411Z,77.73
2016-08-18T12:32:02.435Z,77.92
2016-08-18T12:33:02.446Z,78.11
2016-08-18T12:34:02.455Z,77.44
2016-08-18T12:35:02.625Z,77.53
2016-08-18T12:36:02.465Z,77.63
2016-08-18T12:37:02.481Z,77.34
2016-08-18T12:38:02.467Z,77.73
2016-08-18T12:39:02.627Z,77.53
2016-08-18T12:40:02.486Z,77.25
2016-08-18T12:41:02.514Z,76.86
2016-08-18T12:42:02.499Z,76.67
2016-08-18T12:43:02.514Z,76.51
2016-08-18T12:44:02.584Z,75.93
2016-08-18T12:45:02.532Z,75.93
2016-08-18T12:46:02.781Z,76.51
2016-08-18T12:47:02.565Z,76.7
2016-08-18T12:48:02.609Z,76.9
2016-08-18T12:49:02.629Z,76.51
2016-08-18T12:50:02.588Z,77.28
2016-08-18T12:51:02.591Z,77.76
2016-08-18T12:52:02.592Z,77.38
2016-08-18T12:53:02.601Z,77.96
2016-08-18T12:54:02.607Z,78.34
2016-08-18T12:55:02.628Z,77.76
2016-08-18T12:56:02.619Z,77.67
2016-08-18T12:57:02.641Z,77.38
2016-08-18T12:58:02.661Z,76.9
2016-08-18T12:59:02.667Z,76.61
2016-08-18T13:00:02.661Z,76.74
2016-08-18T13:01:02.673Z,76.9
2016-08-18T13:02:02.669Z,76.61
2016-08-18T13:03:02.706Z,76.51
2016-08-18T13:04:02.690Z,76.51
2016-08-18T13:05:02.716Z,76.51
2016-08-18T13:06:02.731Z,76.51
2016-08-18T13:07:02.736Z,76.61
2016-08-18T13:08:02.736Z,76.51
2016-08-18T13:09:02.744Z,76.51
2016-08-18T13:10:02.744Z,76.42
2016-08-18T13:11:02.776Z,76.64
2016-08-18T13:12:02.776Z,76.55